Time;durP1;ratioP1;P1;durP2;ratioP2;P2;SDS_P1;SDS_P2;PMS_P1;PMS_P2;Temp;Humidity;BMP_temperature;BMP_pressure;BME280_temperature;BME280_humidity;BME280_pressure;Samples;Min_cycle;Max_cycle;Signal;HPM_P1;HPM_P2
2021/03/20 00:01:29;;;;;;;261.00;31.23;;;;;;;1.20;91.61;100820.63;4976905;28;20411;-73
2021/03/20 00:03:55;;;;;;;287.47;33.00;;;;;;;1.25;91.81;100813.38;4975525;28;20030;-73
2021/03/20 00:06:24;;;;;;;277.77;29.60;;;;;;;1.21;91.17;100794.44;4991350;28;20495;-73
2021/03/20 00:08:51;;;;;;;345.90;31.35;;;;;;;1.39;90.46;100820.44;4975630;28;20030;-73
2021/03/20 00:11:18;;;;;;;265.33;27.07;;;;;;;1.31;90.24;100806.25;4991147;28;20042;-73
2021/03/20 00:13:44;;;;;;;217.23;26.70;;;;;;;1.43;90.35;100821.56;4993247;28;20523;-73
2021/03/20 00:16:12;;;;;;;233.10;31.83;;;;;;;1.48;90.09;100824.50;4992630;28;20023;-73
2021/03/20 00:18:38;;;;;;;222.23;27.60;;;;;;;1.41;89.96;100816.38;5005168;28;20474;-73
2021/03/20 00:21:05;;;;;;;254.67;36.53;;;;;;;1.36;89.63;100821.84;4992492;28;20030;-74
2021/03/20 00:23:31;;;;;;;164.53;25.00;;;;;;;1.38;89.99;100828.81;4974139;28;20046;-73
2021/03/20 00:25:57;;;;;;;145.37;22.83;;;;;;;1.48;89.78;100825.38;4992243;28;20110;-74
2021/03/20 00:28:25;;;;;;;48.93;19.77;;;;;;;1.51;89.79;100824.72;4992635;28;20031;-74
2021/03/20 00:30:57;;;;;;;128.43;22.20;;;;;;;1.53;89.37;100818.97;4973447;28;20077;-75
2021/03/20 00:33:23;;;;;;;198.80;21.47;;;;;;;1.59;87.84;100808.41;4992237;28;20023;-71
2021/03/20 00:35:49;;;;;;;212.43;20.40;;;;;;;1.63;87.01;100810.41;4992137;28;20038;-74
2021/03/20 00:38:15;;;;;;;207.13;20.67;;;;;;;1.47;87.20;100803.25;4992308;28;20386;-74
2021/03/20 00:40:41;;;;;;;207.37;20.83;;;;;;;1.03;87.82;100757.38;4991619;28;20491;-75
2021/03/20 00:43:07;;;;;;;161.90;22.10;;;;;;;1.20;88.88;100807.91;4992228;28;20050;-74
2021/03/20 00:45:33;;;;;;;200.63;22.10;;;;;;;0.74;88.47;100739.03;4992037;28;20026;-74
2021/03/20 00:48:08;;;;;;;227.07;23.73;;;;;;;1.18;88.31;100816.19;4992027;28;20093;-74
2021/03/20 00:50:34;;;;;;;203.63;22.47;;;;;;;1.18;88.19;100806.91;4990632;28;20440;-75
2021/03/20 00:53:00;;;;;;;177.50;21.67;;;;;;;1.03;88.19;100798.06;4991684;28;20030;-75
2021/03/20 00:55:25;;;;;;;216.33;22.70;;;;;;;0.98;88.43;100776.47;5006083;28;20483;-74
2021/03/20 00:57:51;;;;;;;208.53;25.27;;;;;;;0.95;88.48;100779.66;5006365;28;20061;-74
2021/03/20 01:00:20;;;;;;;208.53;23.03;;;;;;;0.95;88.69;100777.09;4991648;28;20018;-74
2021/03/20 01:02:46;;;;;;;185.65;22.88;;;;;;;0.92;88.98;100779.38;4990601;28;20038;-75
2021/03/20 01:05:13;;;;;;;163.40;23.17;;;;;;;0.90;88.77;100788.56;4991743;28;20031;-75
2021/03/20 01:07:39;;;;;;;193.17;22.53;;;;;;;0.73;89.45;100794.81;4990891;28;20421;-74
2021/03/20 01:10:11;;;;;;;151.50;21.13;;;;;;;0.57;90.42;100795.19;4991768;28;20018;-75
2021/03/20 01:12:37;;;;;;;75.60;18.43;;;;;;;0.36;91.46;100785.03;4991388;28;20034;-75
2021/03/20 01:15:05;;;;;;;131.73;22.57;;;;;;;0.35;91.78;100787.47;4991451;28;20073;-77
2021/03/20 01:17:30;;;;;;;149.47;23.40;;;;;;;0.38;91.74;100793.69;4989961;28;20542;-74
2021/03/20 01:19:56;;;;;;;139.00;23.70;;;;;;;0.30;91.89;100803.22;5005403;28;20121;-74
2021/03/20 01:22:21;;;;;;;132.70;28.60;;;;;;;0.35;91.68;100787.47;4990759;28;20034;-73
2021/03/20 01:24:47;;;;;;;175.60;26.30;;;;;;;0.37;91.17;100786.81;4991746;28;20053;-74
2021/03/20 01:27:12;;;;;;;198.80;27.17;;;;;;;0.32;90.57;100790.63;4990808;28;20033;-74
2021/03/20 01:29:38;;;;;;;92.97;22.07;;;;;;;0.24;90.77;100800.16;4991097;28;20023;-74
2021/03/20 01:32:03;;;;;;;159.73;23.47;;;;;;;0.26;90.82;100803.72;4991513;28;20466;-74
2021/03/20 01:34:29;;;;;;;117.70;22.73;;;;;;;0.15;90.96;100777.44;5006371;28;20026;-74
2021/03/20 01:36:54;;;;;;;126.97;23.03;;;;;;;0.34;90.94;100788.22;4990481;28;20054;-74
2021/03/20 01:39:20;;;;;;;223.50;24.50;;;;;;;0.24;90.43;100784.94;4991078;28;20053;-74
2021/03/20 01:41:45;;;;;;;123.73;20.80;;;;;;;0.31;90.68;100804.09;4990867;28;20097;-74
2021/03/20 01:44:17;;;;;;;143.47;21.83;;;;;;;0.26;89.84;100798.66;4990853;28;20038;-74
2021/03/20 01:46:43;;;;;;;101.93;21.40;;;;;;;0.25;89.46;100799.41;4986284;28;20034;-74
2021/03/20 01:49:17;;;;;;;104.13;21.50;;;;;;;0.26;90.10;100805.34;4989771;28;20038;-75
2021/03/20 01:51:49;;;;;;;109.53;21.23;;;;;;;0.11;90.16;100816.03;4990525;28;20113;-74
2021/03/20 01:54:15;;;;;;;66.90;19.47;;;;;;;-0.14;90.74;100824.84;4991892;28;20030;-74
2021/03/20 01:56:43;;;;;;;74.97;19.23;;;;;;;-0.30;90.65;100798.16;4974206;28;20027;-76
2021/03/20 01:59:11;;;;;;;62.07;20.83;;;;;;;-0.21;91.01;100806.56;4973304;28;20474;-75
2021/03/20 02:01:39;;;;;;;55.20;26.47;;;;;;;-0.17;91.20;100835.63;4975637;28;20105;-74
2021/03/20 02:04:05;;;;;;;117.20;30.10;;;;;;;-0.11;91.35;100826.00;4973225;28;20049;-75
2021/03/20 02:06:31;;;;;;;71.20;19.30;;;;;;;-0.58;91.11;100756.88;4972179;28;20031;-75
2021/03/20 02:09:05;;;;;;;80.33;22.73;;;;;;;-0.13;91.81;100846.94;4975736;28;20501;-74
2021/03/20 02:11:50;;;;;;;93.90;19.30;;;;;;;-0.48;92.24;100781.38;4973569;28;20513;-73
2021/03/20 02:14:22;;;;;;;88.07;22.10;;;;;;;-0.15;92.44;100829.03;4973892;28;20031;-73
2021/03/20 02:16:55;;;;;;;100.37;19.83;;;;;;;-0.12;92.43;100834.38;4972549;28;20030;-74
2021/03/20 02:19:36;;;;;;;135.30;21.93;;;;;;;-0.02;92.46;100838.59;4972868;28;20034;-75
2021/03/20 02:22:10;;;;;;;106.00;19.47;;;;;;;0.00;92.08;100834.53;4975541;28;20074;-75
2021/03/20 02:24:57;;;;;;;139.70;19.27;;;;;;;-0.02;92.16;100830.97;4972037;28;20031;-73
2021/03/20 02:27:35;;;;;;;170.53;21.20;;;;;;;-0.03;92.35;100830.06;4971454;28;20042;-74
2021/03/20 02:30:38;;;;;;;143.97;21.40;;;;;;;0.03;92.00;100824.63;4984776;28;20439;-73
2021/03/20 02:33:13;;;;;;;101.60;19.70;;;;;;;-0.04;92.46;100824.88;4972462;28;20034;-73
2021/03/20 02:35:49;;;;;;;124.90;19.50;;;;;;;-0.01;91.97;100815.88;4971557;28;20496;-73
2021/03/20 02:38:26;;;;;;;150.53;19.60;;;;;;;-0.06;91.97;100801.03;4972751;28;20050;-74
2021/03/20 02:41:09;;;;;;;106.30;18.30;;;;;;;-0.01;91.55;100807.38;4974180;28;20029;-74
2021/03/20 02:43:50;;;;;;;118.90;18.47;;;;;;;-0.02;91.97;100828.44;4974213;28;20553;-76
2021/03/20 02:46:28;;;;;;;105.43;17.83;;;;;;;-0.13;93.32;100821.56;4973392;28;20069;-74
2021/03/20 02:49:05;;;;;;;90.27;17.53;;;;;;;0.06;92.59;100829.97;4974147;28;20065;-74
2021/03/20 02:51:40;;;;;;;65.23;17.73;;;;;;;0.01;92.04;100822.72;4987436;28;20027;-74
2021/03/20 02:54:27;;;;;;;64.47;15.90;;;;;;;-0.10;92.00;100826.88;4973007;28;20077;-75
2021/03/20 02:57:03;;;;;;;66.03;16.23;;;;;;;-0.13;92.24;100829.19;4971901;28;20041;-74
2021/03/20 02:59:33;;;;;;;68.03;16.83;;;;;;;-0.15;92.52;100823.94;4971839;28;20030;-74
2021/03/20 03:02:03;;;;;;;66.40;17.73;;;;;;;0.01;92.06;100833.75;4970714;28;20093;-74
2021/03/20 03:04:36;;;;;;;83.80;18.10;;;;;;;-0.01;91.87;100804.84;4975380;28;20540;-74
2021/03/20 03:07:12;;;;;;;91.73;19.73;;;;;;;-0.08;91.61;100774.63;4991127;28;20041;-74
2021/03/20 03:09:51;;;;;;;83.40;19.83;;;;;;;0.12;91.30;100820.31;4985487;28;20030;-73
2021/03/20 03:12:31;;;;;;;58.70;18.55;;;;;;;-0.20;91.79;100826.13;4972233;28;20027;-73
2021/03/20 03:15:04;;;;;;;54.15;17.85;;;;;;;-0.22;92.57;100817.47;4972786;28;20121;-74
2021/03/20 03:17:33;;;;;;;87.90;19.30;;;;;;;-0.27;92.61;100803.50;4974801;28;20118;-74
2021/03/20 03:20:06;;;;;;;69.68;20.25;;;;;;;-0.05;92.75;100820.53;4989207;28;20034;-74
2021/03/20 03:22:40;;;;;;;84.83;19.10;;;;;;;0.02;92.13;100822.84;4994238;28;20035;-76
2021/03/20 03:25:11;;;;;;;80.63;18.97;;;;;;;0.09;91.99;100829.34;4993826;28;20022;-76
2021/03/20 03:27:40;;;;;;;120.93;20.37;;;;;;;-0.59;92.22;100699.31;4993446;28;20165;-75
2021/03/20 03:30:13;;;;;;;89.63;22.27;;;;;;;0.17;92.36;100808.03;4992237;28;20045;-75
2021/03/20 03:32:43;;;;;;;108.43;22.83;;;;;;;-0.10;91.77;100764.34;4994243;28;20023;-74
2021/03/20 03:35:23;;;;;;;63.73;21.70;;;;;;;0.27;92.27;100818.19;4994278;28;20061;-74
2021/03/20 03:38:05;;;;;;;105.13;23.83;;;;;;;0.18;92.32;100819.97;4993826;28;20034;-74
2021/03/20 03:40:45;;;;;;;80.90;22.00;;;;;;;0.06;92.79;100826.53;4993675;28;20034;-71
2021/03/20 03:43:11;;;;;;;112.82;21.40;;;;;;;-0.02;93.00;100819.16;4994306;28;20050;-74
2021/03/20 03:45:36;;;;;;;120.87;23.37;;;;;;;-0.02;93.76;100834.38;4993879;28;20026;-74
2021/03/20 03:48:03;;;;;;;107.03;22.87;;;;;;;0.07;93.88;100800.41;4993543;28;20018;-74
2021/03/20 03:50:34;;;;;;;102.23;23.07;;;;;;;0.27;93.51;100830.88;4994116;28;20028;-78
2021/03/20 03:53:03;;;;;;;107.07;22.20;;;;;;;0.39;92.70;100818.31;4993920;28;20137;-74
2021/03/20 03:55:29;;;;;;;101.20;21.08;;;;;;;0.43;91.88;100825.44;4993812;28;20030;-73
2021/03/20 03:58:11;;;;;;;92.07;19.80;;;;;;;0.22;92.23;100800.81;4991225;28;20030;-75
2021/03/20 04:00:44;;;;;;;95.13;19.17;;;;;;;0.11;92.88;100833.81;4990764;28;20034;-74
2021/03/20 04:03:38;;;;;;;109.93;19.63;;;;;;;0.09;93.31;100822.63;4991342;28;20525;-75
2021/03/20 04:06:40;;;;;;;69.63;21.77;;;;;;;0.31;93.19;100839.66;4991031;28;20525;-75
2021/03/20 04:09:09;;;;;;;81.13;20.93;;;;;;;0.19;93.80;100843.69;4991287;28;20037;-73
2021/03/20 04:11:52;;;;;;;99.63;23.30;;;;;;;0.00;93.83;100786.31;4991758;28;20509;-73
2021/03/20 04:14:26;;;;;;;72.73;25.37;;;;;;;0.39;93.89;100820.00;4991184;28;20042;-74
2021/03/20 04:17:03;;;;;;;102.53;22.33;;;;;;;0.56;93.17;100829.91;4991127;28;20027;-75
2021/03/20 04:20:02;;;;;;;46.43;17.50;;;;;;;0.60;92.15;100831.91;4991015;28;20095;-75
2021/03/20 04:22:47;;;;;;;57.90;18.75;;;;;;;0.48;92.09;100815.66;4991169;28;20038;-73
2021/03/20 04:25:54;;;;;;;101.97;22.23;;;;;;;0.56;92.13;100834.06;4990778;28;20092;-73
2021/03/20 04:28:35;;;;;;;81.93;19.50;;;;;;;0.63;92.00;100856.69;4991340;28;20045;-76
2021/03/20 04:31:10;;;;;;;118.90;23.17;;;;;;;0.36;93.11;100863.78;4992079;28;20474;-77
2021/03/20 04:33:50;;;;;;;84.30;23.47;;;;;;;0.55;92.68;100860.22;4993049;28;20026;-77
2021/03/20 04:36:23;;;;;;;60.97;21.23;;;;;;;0.52;92.41;100857.44;4975110;28;20446;-76
2021/03/20 04:38:49;;;;;;;72.73;20.20;;;;;;;0.42;92.30;100861.75;4992873;28;20045;-74
2021/03/20 04:41:16;;;;;;;77.40;20.27;;;;;;;0.36;92.85;100855.28;4992901;28;20054;-72
2021/03/20 04:43:43;;;;;;;77.10;23.43;;;;;;;0.23;92.94;100854.25;4993012;28;20121;-73
2021/03/20 04:46:18;;;;;;;74.93;23.03;;;;;;;0.51;92.87;100865.81;4993037;28;20038;-73
2021/03/20 04:48:49;;;;;;;68.60;20.80;;;;;;;0.53;92.52;100856.69;4992614;28;20117;-71
2021/03/20 04:51:24;;;;;;;52.57;19.93;;;;;;;0.62;92.34;100870.16;4992638;28;20037;-75
2021/03/20 04:54:01;;;;;;;50.33;18.27;;;;;;;0.70;91.99;100873.31;4992608;28;20053;-72
2021/03/20 04:56:27;;;;;;;43.00;16.77;;;;;;;0.74;91.44;100855.03;4992741;28;20030;-74
2021/03/20 04:59:01;;;;;;;45.83;17.00;;;;;;;0.84;91.39;100871.94;4992553;28;20053;-74
2021/03/20 05:01:35;;;;;;;38.00;18.23;;;;;;;0.79;90.81;100854.63;4992806;28;20053;-73
2021/03/20 05:04:22;;;;;;;37.57;18.90;;;;;;;0.42;91.47;100793.16;4992653;28;20026;-71
2021/03/20 05:06:50;;;;;;;29.73;16.60;;;;;;;0.56;91.20;100877.25;4991941;28;20053;-75
2021/03/20 05:09:23;;;;;;;37.77;19.20;;;;;;;0.52;91.73;100873.56;4992435;28;20037;-73
2021/03/20 05:12:23;;;;;;;27.57;16.73;;;;;;;0.62;91.92;100870.16;4992476;28;20088;-75
2021/03/20 05:15:20;;;;;;;32.47;16.97;;;;;;;0.74;91.74;100870.28;4992172;28;20034;-75
2021/03/20 05:17:46;;;;;;;36.47;19.37;;;;;;;0.71;91.59;100867.47;4992027;28;20022;-74
2021/03/20 05:20:11;;;;;;;76.13;41.97;;;;;;;0.77;91.56;100858.72;4992473;28;20053;-75
2021/03/20 05:22:37;;;;;;;87.60;54.97;;;;;;;0.64;91.92;100858.47;4992294;28;20065;-76
2021/03/20 05:25:03;;;;;;;62.07;37.93;;;;;;;0.62;91.98;100860.00;4992102;28;20410;-73
2021/03/20 05:27:32;;;;;;;68.23;46.27;;;;;;;0.55;92.52;100870.41;4990960;28;20063;-78
2021/03/20 05:29:58;;;;;;;61.23;35.03;;;;;;;0.53;92.99;100860.13;4992142;28;20027;-75
2021/03/20 05:32:27;;;;;;;50.40;25.47;;;;;;;0.63;93.03;100861.78;4991791;28;20027;-76
2021/03/20 05:34:54;;;;;;;;;;;;;;;0.40;94.15;100860.75;4992741;28;20037;-74
2021/03/20 05:37:30;;;;;;;68.90;28.47;;;;;;;0.45;94.49;100856.94;4991622;28;20329;-75
2021/03/20 05:39:55;;;;;;;69.20;28.43;;;;;;;0.30;95.86;100863.28;4990590;28;20137;-71
2021/03/20 05:42:33;;;;;;;79.33;32.03;;;;;;;0.34;95.97;100870.41;4988713;28;20046;-73
2021/03/20 05:45:11;;;;;;;75.40;33.23;;;;;;;0.59;96.09;100868.25;4989929;28;20057;-77
2021/03/20 05:48:10;;;;;;;90.73;30.07;;;;;;;0.82;95.51;100869.25;4989595;28;20076;-74
2021/03/20 05:51:00;;;;;;;80.63;29.85;;;;;;;0.59;94.91;100804.72;4989508;28;20065;-74
2021/03/20 05:53:34;;;;;;;69.73;29.13;;;;;;;1.01;94.06;100858.06;4989868;28;20564;-77
2021/03/20 05:56:13;;;;;;;75.27;31.67;;;;;;;1.16;93.20;100866.03;4989372;28;20030;-75
2021/03/20 05:58:38;;;;;;;73.82;33.42;;;;;;;1.25;92.46;100866.78;4971455;28;20502;-73
2021/03/20 06:01:35;;;;;;;69.80;32.13;;;;;;;1.17;92.36;100827.13;4986604;28;20039;-76
2021/03/20 06:04:36;;;;;;;64.97;29.77;;;;;;;1.49;91.27;100866.97;4974777;28;20042;-76
2021/03/20 06:07:09;;;;;;;51.07;25.63;;;;;;;1.53;90.69;100879.16;4970329;28;20534;-74
2021/03/20 06:09:47;;;;;;;60.07;30.40;;;;;;;1.28;91.54;100880.66;4970994;28;20050;-72
2021/03/20 06:12:34;;;;;;;52.47;27.50;;;;;;;1.19;91.43;100835.78;4954176;28;20042;-74
2021/03/20 06:14:59;;;;;;;53.47;26.67;;;;;;;1.53;92.17;100884.25;4972666;28;20135;-74
2021/03/20 06:17:43;;;;;;;58.07;28.67;;;;;;;1.52;92.01;100885.94;4983080;28;20034;-72
2021/03/20 06:20:33;;;;;;;56.17;28.27;;;;;;;1.60;91.72;100884.00;4972233;28;20114;-74
2021/03/20 06:23:10;;;;;;;;;;;;;;;1.71;91.91;100880.63;4972973;28;20142;-74
2021/03/20 06:25:56;;;;;;;45.77;25.83;;;;;;;1.82;91.52;100885.66;4972556;28;19910;-74
2021/03/20 06:28:31;;;;;;;55.07;28.07;;;;;;;1.70;91.43;100850.84;4987125;28;20414;-74
2021/03/20 06:31:05;;;;;;;52.03;27.73;;;;;;;1.78;91.20;100884.53;4972173;28;20089;-74
2021/03/20 06:33:41;;;;;;;59.20;30.03;;;;;;;1.84;91.47;100889.25;4972309;28;20038;-72
2021/03/20 06:36:33;;;;;;;55.60;27.87;;;;;;;1.95;90.83;100890.97;4986316;28;20034;-74
2021/03/20 06:39:29;;;;;;;57.87;27.73;;;;;;;1.98;90.73;100896.31;4972094;28;20042;-74
2021/03/20 06:41:59;;;;;;;55.83;31.20;;;;;;;1.99;90.50;100900.59;4982024;28;20049;-75
2021/03/20 06:44:35;;;;;;;77.00;37.17;;;;;;;2.05;91.12;100907.84;4991489;28;20053;-75
2021/03/20 06:47:02;;;;;;;73.23;36.23;;;;;;;2.06;91.09;100900.31;4991071;28;20037;-74
2021/03/20 06:50:03;;;;;;;58.97;31.63;;;;;;;1.83;90.44;100855.22;4991543;28;20031;-74
2021/03/20 06:52:31;;;;;;;59.37;31.23;;;;;;;2.08;91.30;100898.78;4977365;28;20043;-74
2021/03/20 06:55:06;;;;;;;72.17;38.50;;;;;;;2.11;91.61;100898.16;4980893;28;20062;-74
2021/03/20 06:57:32;;;;;;;58.27;30.77;;;;;;;1.75;92.32;100900.47;4984057;28;20084;-73
2021/03/20 07:00:27;;;;;;;66.63;34.00;;;;;;;1.74;94.57;100902.88;4973265;28;20510;-75
2021/03/20 07:03:10;;;;;;;73.33;34.67;;;;;;;1.88;94.09;100909.06;4973878;28;20043;-74
2021/03/20 07:05:58;;;;;;;87.87;41.53;;;;;;;1.97;94.77;100909.81;4973476;28;20051;-74
2021/03/20 07:08:50;;;;;;;96.83;43.50;;;;;;;2.06;94.28;100917.28;4973504;28;20093;-75
2021/03/20 07:11:31;;;;;;;86.83;40.70;;;;;;;1.96;94.74;100895.28;4973425;28;20100;-74
2021/03/20 07:14:00;;;;;;;100.03;44.47;;;;;;;2.05;95.52;100900.22;4973333;28;20054;-76
2021/03/20 07:16:28;;;;;;;101.18;43.88;;;;;;;2.07;95.53;100894.47;4957210;28;20062;-74
2021/03/20 07:19:03;;;;;;;97.03;41.90;;;;;;;2.18;95.68;100894.41;4973177;28;20097;-75
2021/03/20 07:21:37;;;;;;;94.03;41.93;;;;;;;2.17;95.84;100887.53;4973185;28;20035;-72
2021/03/20 07:24:18;;;;;;;87.10;42.43;;;;;;;2.25;96.15;100896.66;4973071;28;20089;-75
2021/03/20 07:27:28;;;;;;;81.53;39.43;;;;;;;2.30;96.77;100907.22;4973002;28;20035;-77
2021/03/20 07:29:57;;;;;;;80.43;39.20;;;;;;;2.05;96.36;100888.34;4932650;29;20146;-74
2021/03/20 07:32:23;;;;;;;67.80;33.90;;;;;;;2.19;97.43;100914.91;4934400;29;20114;-74
2021/03/20 07:34:48;;;;;;;61.40;31.70;;;;;;;2.26;96.97;100911.19;4936856;29;20143;-74
2021/03/20 07:37:25;;;;;;;64.03;31.73;;;;;;;2.31;96.93;100901.34;4933740;29;20043;-76
2021/03/20 07:39:57;;;;;;;60.43;29.73;;;;;;;2.22;96.30;100891.34;4933726;29;20519;-73
2021/03/20 07:42:34;;;;;;;49.67;29.03;;;;;;;2.49;96.68;100906.97;4934213;29;20059;-75
2021/03/20 07:45:27;;;;;;;51.63;29.03;;;;;;;2.52;96.55;100902.97;4918065;29;20043;-74
2021/03/20 07:47:53;;;;;;;59.60;33.03;;;;;;;2.33;96.19;100859.94;4934590;29;20046;-74
2021/03/20 07:50:18;;;;;;;106.10;79.30;;;;;;;2.71;96.55;100899.28;4934364;29;20023;-74
2021/03/20 07:52:46;;;;;;;54.47;30.40;;;;;;;2.83;96.06;100905.31;4934572;29;20035;-75
2021/03/20 07:55:23;;;;;;;54.30;31.03;;;;;;;2.92;95.32;100897.44;4934757;29;20052;-74
2021/03/20 07:57:52;;;;;;;94.67;60.33;;;;;;;3.06;96.09;100898.47;4943114;29;20031;-75
2021/03/20 08:00:26;;;;;;;59.80;33.55;;;;;;;2.83;95.10;100846.66;4941947;29;20131;-76
2021/03/20 08:02:52;;;;;;;70.47;37.87;;;;;;;3.15;94.61;100888.94;4942261;29;20042;-74
2021/03/20 08:05:18;;;;;;;60.17;33.80;;;;;;;3.38;95.09;100895.72;4938839;29;20043;-74
2021/03/20 08:07:49;;;;;;;59.87;36.97;;;;;;;3.37;95.52;100882.88;4993630;28;20042;-74
2021/03/20 08:10:26;;;;;;;51.23;29.40;;;;;;;3.61;96.17;100903.28;4993689;28;20027;-70
2021/03/20 08:12:54;;;;;;;47.78;28.02;;;;;;;3.70;95.09;100899.72;4992044;28;20069;-72
2021/03/20 08:15:25;;;;;;;46.20;30.33;;;;;;;3.83;95.59;100898.03;4992148;28;20038;-72
2021/03/20 08:17:51;;;;;;;53.53;35.65;;;;;;;3.93;95.60;100889.38;4993632;28;20027;-73
2021/03/20 08:20:17;;;;;;;53.97;40.47;;;;;;;4.12;93.43;100894.09;4993113;28;20036;-74
2021/03/20 08:22:57;;;;;;;40.28;25.33;;;;;;;4.14;91.23;100883.19;4990235;28;20402;-74
2021/03/20 08:25:37;;;;;;;38.78;23.40;;;;;;;4.31;90.29;100904.81;4991958;28;20030;-74
2021/03/20 08:28:22;;;;;;;44.28;27.73;;;;;;;4.28;91.67;100893.47;4992642;28;20026;-74
2021/03/20 08:31:20;;;;;;;59.65;31.40;;;;;;;4.33;92.11;100894.69;4992092;28;20089;-74
2021/03/20 08:34:05;;;;;;;47.65;30.67;;;;;;;4.44;90.87;100900.53;4990173;28;20510;-77
2021/03/20 08:36:33;;;;;;;49.72;30.40;;;;;;;4.56;91.26;100897.91;4993249;28;20045;-76
2021/03/20 08:39:21;;;;;;;44.42;28.63;;;;;;;4.66;90.84;100895.19;4993187;28;20022;-76
2021/03/20 08:42:51;;;;;;;34.38;23.42;;;;;;;4.71;90.39;100891.31;4992949;28;20174;-76
2021/03/20 08:45:41;;;;;;;45.47;30.10;;;;;;;4.84;91.11;100882.75;4914114;29;20432;-76
2021/03/20 08:48:41;;;;;;;41.42;28.42;;;;;;;4.96;91.62;100885.25;4913853;29;20036;-76
2021/03/20 08:51:17;;;;;;;37.50;25.20;;;;;;;5.07;90.40;100881.75;4902177;29;20119;-76
2021/03/20 08:54:07;;;;;;;34.60;24.92;;;;;;;5.20;91.16;100875.75;4894998;29;20583;-75
2021/03/20 08:56:40;;;;;;;37.95;25.48;;;;;;;5.31;91.14;100874.75;4895650;29;20181;-78
2021/03/20 08:59:21;;;;;;;37.65;25.15;;;;;;;5.25;90.90;100865.81;4894772;29;20044;-75
2021/03/20 09:01:57;;;;;;;37.25;23.55;;;;;;;5.21;89.62;100872.41;4899968;29;20509;-75
2021/03/20 09:04:31;;;;;;;39.45;22.85;;;;;;;5.23;89.43;100886.16;4887421;29;20032;-76
2021/03/20 09:07:01;;;;;;;37.80;27.83;;;;;;;5.28;88.32;100886.47;4904631;29;20044;-76
2021/03/20 09:09:52;;;;;;;;;;;;;;;5.27;90.35;100888.16;4905135;29;20044;-75
2021/03/20 09:12:36;;;;;;;36.40;25.00;;;;;;;5.23;89.46;100888.72;4857814;29;20396;-75
2021/03/20 09:15:06;;;;;;;30.95;22.02;;;;;;;5.20;89.94;100880.84;4857184;29;20049;-75
2021/03/20 09:17:41;;;;;;;32.45;24.27;;;;;;;5.28;89.01;100886.47;4856565;29;20057;-75
2021/03/20 09:20:11;;;;;;;33.28;21.55;;;;;;;5.31;87.82;100885.00;4869726;29;20494;-73
2021/03/20 09:22:43;;;;;;;47.03;31.92;;;;;;;5.27;88.39;100870.25;4906232;29;20495;-73
2021/03/20 09:25:19;;;;;;;43.03;29.05;;;;;;;5.34;87.58;100872.38;4914376;29;20047;-71
2021/03/20 09:28:12;;;;;;;38.08;28.17;;;;;;;5.43;87.98;100871.22;4913477;29;20079;-70
2021/03/20 09:30:45;;;;;;;32.40;24.27;;;;;;;5.41;86.84;100858.31;4916020;29;20050;-70
2021/03/20 09:33:15;;;;;;;33.60;25.13;;;;;;;5.49;88.71;100869.03;4914989;29;20036;-71
2021/03/20 09:35:50;;;;;;;32.55;24.65;;;;;;;5.43;87.70;100868.66;4912760;29;20103;-71
2021/03/20 09:38:34;;;;;;;35.85;26.17;;;;;;;5.44;87.24;100870.44;4918086;29;20076;-72
2021/03/20 09:41:08;;;;;;;38.78;28.30;;;;;;;5.22;88.49;100840.00;4913931;29;20591;-71
2021/03/20 09:43:46;;;;;;;43.63;31.45;;;;;;;5.46;88.91;100862.06;4916001;29;20059;-73
2021/03/20 09:46:45;;;;;;;32.20;23.08;;;;;;;5.58;87.75;100874.78;4913532;29;20452;-71
2021/03/20 09:49:10;;;;;;;28.15;20.65;;;;;;;5.65;86.89;100870.91;4948421;28;20086;-71
2021/03/20 09:51:58;;;;;;;31.50;24.42;;;;;;;5.80;88.72;100860.75;4973465;28;20541;-73
2021/03/20 09:54:23;;;;;;;43.92;37.90;;;;;;;5.89;88.69;100863.84;4973629;28;20109;-72
2021/03/20 09:57:11;;;;;;;73.07;65.93;;;;;;;5.76;86.98;100845.97;4971140;28;20118;-71
2021/03/20 09:59:37;;;;;;;40.92;28.23;;;;;;;5.83;86.82;100842.97;4973049;28;20027;-73
2021/03/20 10:02:14;;;;;;;33.40;23.50;;;;;;;5.89;86.90;100847.59;4970742;28;20026;-72
2021/03/20 10:04:52;;;;;;;25.65;19.67;;;;;;;5.92;86.76;100847.78;4972688;28;21102;-72
2021/03/20 10:07:20;;;;;;;21.15;17.50;;;;;;;5.95;86.57;100845.44;4973201;28;20039;-71
2021/03/20 10:10:10;;;;;;;25.80;20.52;;;;;;;5.98;86.96;100837.91;4972322;28;20034;-72
2021/03/20 10:12:53;;;;;;;23.02;16.73;;;;;;;6.04;86.24;100837.44;4972759;28;20026;-72
2021/03/20 10:15:31;;;;;;;26.73;18.77;;;;;;;5.81;86.08;100804.47;4971648;28;20030;-73
2021/03/20 10:18:02;;;;;;;18.67;14.48;;;;;;;5.79;83.73;100787.22;4974048;28;20038;-73
2021/03/20 10:20:44;;;;;;;80.35;34.30;;;;;;;5.97;85.13;100831.91;4973856;28;20089;-73
2021/03/20 10:23:47;;;;;;;28.55;20.20;;;;;;;6.01;85.49;100829.56;4974820;28;20161;-73
2021/03/20 10:26:37;;;;;;;18.40;14.23;;;;;;;5.75;83.58;100804.06;4972487;28;20034;-71
2021/03/20 10:29:16;;;;;;;29.52;20.00;;;;;;;5.88;84.75;100827.91;4974713;28;20022;-71
2021/03/20 10:31:44;;;;;;;19.45;13.85;;;;;;;5.94;83.58;100823.16;4979570;28;20027;-71
2021/03/20 10:34:13;;;;;;;20.38;15.32;;;;;;;5.98;83.91;100831.16;4976463;28;20031;-71
2021/03/20 10:36:45;;;;;;;17.43;14.80;;;;;;;5.99;83.94;100819.22;4977533;28;20053;-70
2021/03/20 10:39:22;;;;;;;17.67;14.23;;;;;;;6.02;84.50;100832.25;4976442;28;20505;-71
2021/03/20 10:41:49;;;;;;;23.30;16.77;;;;;;;6.04;84.57;100814.38;4977205;28;20125;-71
2021/03/20 10:44:19;;;;;;;30.45;20.23;;;;;;;6.05;84.83;100821.28;4976417;28;20034;-70
2021/03/20 10:46:47;;;;;;;20.77;16.48;;;;;;;6.05;85.04;100826.41;4977185;28;20030;-71
2021/03/20 10:49:25;;;;;;;20.85;16.42;;;;;;;6.01;84.60;100812.53;4977666;28;20035;-71
2021/03/20 10:51:55;;;;;;;23.15;17.35;;;;;;;6.09;85.77;100823.22;4978391;28;20104;-71
2021/03/20 10:54:39;;;;;;;21.75;18.45;;;;;;;6.02;85.72;100811.72;4975883;28;20667;-70
2021/03/20 10:57:10;;;;;;;44.88;40.50;;;;;;;5.98;84.20;100805.53;4976602;28;20030;-70
2021/03/20 10:59:40;;;;;;;33.92;30.25;;;;;;;5.59;84.51;100734.78;4974737;28;20548;-70
2021/03/20 11:02:32;;;;;;;21.15;16.63;;;;;;;6.03;84.94;100808.38;4979925;28;20032;-70
2021/03/20 11:05:29;;;;;;;19.60;15.82;;;;;;;6.06;85.00;100792.31;4975229;28;20045;-70
2021/03/20 11:08:04;;;;;;;24.58;19.67;;;;;;;6.14;86.97;100778.25;4919934;29;20075;-71
2021/03/20 11:10:37;;;;;;;22.42;17.95;;;;;;;6.32;84.95;100793.84;4918653;29;20039;-69
2021/03/20 11:13:27;;;;;;;22.65;18.00;;;;;;;6.43;85.39;100792.81;4923649;29;20043;-70
2021/03/20 11:16:19;;;;;;;22.60;17.45;;;;;;;6.31;84.12;100761.31;4926720;29;20051;-70
2021/03/20 11:19:10;;;;;;;18.38;14.68;;;;;;;6.36;81.76;100766.72;4916516;29;20051;-71
2021/03/20 11:21:39;;;;;;;20.48;15.32;;;;;;;6.31;82.33;100751.94;4924192;29;20487;-71
2021/03/20 11:24:15;;;;;;;25.02;18.90;;;;;;;6.39;83.11;100759.19;4933686;29;20059;-72
2021/03/20 11:26:44;;;;;;;18.45;14.90;;;;;;;6.44;81.65;100765.47;4934213;29;20515;-71
2021/03/20 11:29:14;;;;;;;22.92;16.08;;;;;;;6.39;82.00;100774.56;4917780;29;20535;-71
2021/03/20 11:31:49;;;;;;;21.80;17.35;;;;;;;6.45;83.24;100765.53;4916008;29;20080;-70
2021/03/20 11:34:23;;;;;;;23.48;17.35;;;;;;;6.43;82.57;100741.50;4914751;29;20572;-70
2021/03/20 11:36:49;;;;;;;22.70;15.73;;;;;;;6.41;81.53;100749.91;4916221;29;20461;-71
2021/03/20 11:39:16;;;;;;;18.40;15.30;;;;;;;6.28;81.56;100730.34;4924964;29;20135;-72
2021/03/20 11:41:44;;;;;;;18.25;15.52;;;;;;;6.51;81.39;100752.22;4933287;29;20056;-71
2021/03/20 11:44:27;;;;;;;19.30;15.18;;;;;;;6.56;81.56;100743.09;4950612;28;20502;-72
2021/03/20 11:47:01;;;;;;;17.00;13.75;;;;;;;6.71;80.76;100737.09;4993743;28;20470;-71
2021/03/20 11:49:46;;;;;;;31.30;20.52;;;;;;;6.55;81.33;100707.97;4985079;28;20022;-73
2021/03/20 11:52:18;;;;;;;18.55;14.57;;;;;;;6.56;80.14;100704.63;5001658;28;20030;-73